createdAt,value
2018-09-16T00:01:13.351Z,87.70
2018-09-16T00:03:41.714Z,86.80
2018-09-16T00:06:09.966Z,87.50
2018-09-16T00:08:38.243Z,87.80
2018-09-16T00:11:06.512Z,88.30
2018-09-16T00:13:34.711Z,88.60
2018-09-16T00:16:02.978Z,87.60
2018-09-16T00:18:31.227Z,88.40
2018-09-16T00:20:59.455Z,88.50
2018-09-16T00:24:52.195Z,88.10
2018-09-16T00:27:20.532Z,88.90
2018-09-16T00:29:48.753Z,89.60
2018-09-16T00:32:22.463Z,90.40
2018-09-16T00:34:50.692Z,90.80
2018-09-16T00:37:19.049Z,91.10
2018-09-16T00:39:47.224Z,91.60
2018-09-16T00:42:15.420Z,91.70
2018-09-16T00:44:43.652Z,91.30
2018-09-16T00:47:11.939Z,91.70
2018-09-16T00:49:40.246Z,90.90
2018-09-16T00:52:08.498Z,91.20
2018-09-16T00:54:36.769Z,91.10
2018-09-16T00:57:04.993Z,91.20
2018-09-16T00:59:33.210Z,91.20
2018-09-16T01:02:01.549Z,91.40
2018-09-16T01:04:29.796Z,91.30
2018-09-16T01:06:58.064Z,91.20
2018-09-16T01:09:26.367Z,90.60
2018-09-16T01:11:54.620Z,90.50
2018-09-16T01:14:22.860Z,90.80
2018-09-16T01:16:51.083Z,90.50
2018-09-16T01:21:47.299Z,90.50
2018-09-16T01:24:15.583Z,90.90
2018-09-16T01:26:43.815Z,91.00
2018-09-16T01:29:12.111Z,91.20
2018-09-16T01:31:40.388Z,91.40
2018-09-16T01:34:08.634Z,91.10
2018-09-16T01:36:36.902Z,91.40
2018-09-16T01:39:06.925Z,91.00
2018-09-16T01:41:35.543Z,91.20
2018-09-16T01:44:03.899Z,90.70
2018-09-16T01:46:32.196Z,90.90
2018-09-16T01:49:00.463Z,91.00
2018-09-16T01:51:28.763Z,91.00
2018-09-16T01:53:56.967Z,91.20
2018-09-16T01:58:53.211Z,91.20
2018-09-16T02:01:21.683Z,91.50
2018-09-16T02:03:49.867Z,91.60
2018-09-16T02:06:18.107Z,92.40
2018-09-16T02:08:46.314Z,92.20
2018-09-16T02:11:14.594Z,92.30
2018-09-16T02:13:42.854Z,92.20
2018-09-16T02:16:11.107Z,92.00
2018-09-16T02:18:39.350Z,92.30
2018-09-16T02:21:07.588Z,92.10
2018-09-16T02:23:35.787Z,92.50
2018-09-16T02:26:04.038Z,92.40
2018-09-16T02:28:32.267Z,92.40
2018-09-16T02:31:00.672Z,92.30
2018-09-16T02:33:28.880Z,91.90
2018-09-16T02:35:57.148Z,92.10
2018-09-16T02:38:25.399Z,92.40
2018-09-16T02:40:53.595Z,92.00
2018-09-16T02:43:21.855Z,92.00
2018-09-16T02:45:50.100Z,91.90
2018-09-16T02:48:18.304Z,91.90
2018-09-16T02:50:46.520Z,91.70
2018-09-16T02:53:14.789Z,91.40
2018-09-16T02:55:43.046Z,91.70
2018-09-16T02:58:11.323Z,92.00
2018-09-16T03:00:39.596Z,92.00
2018-09-16T03:03:07.859Z,92.10
2018-09-16T03:05:41.496Z,92.40
2018-09-16T03:08:09.755Z,92.60
2018-09-16T03:10:37.947Z,92.90
2018-09-16T03:13:06.359Z,92.60
2018-09-16T03:15:34.644Z,92.50
2018-09-16T03:18:02.920Z,92.80
2018-09-16T03:20:31.115Z,92.50
2018-09-16T03:22:59.390Z,92.80
2018-09-16T03:25:27.635Z,92.40
2018-09-16T03:27:55.911Z,92.70
2018-09-16T03:30:24.140Z,92.70
2018-09-16T03:32:52.363Z,92.70
2018-09-16T03:35:20.658Z,92.10
2018-09-16T03:37:48.915Z,92.40
2018-09-16T03:40:17.104Z,92.20
2018-09-16T03:42:45.429Z,92.50
2018-09-16T03:45:13.655Z,92.60
2018-09-16T03:47:41.928Z,92.50
2018-09-16T03:50:10.168Z,92.80
2018-09-16T03:52:38.450Z,92.40
2018-09-16T03:55:06.651Z,92.60
2018-09-16T03:57:34.868Z,92.80
2018-09-16T04:02:31.183Z,92.70
2018-09-16T04:04:59.443Z,92.90
2018-09-16T04:07:27.719Z,92.70
2018-09-16T04:09:56.044Z,93.00
2018-09-16T04:14:52.235Z,92.70
2018-09-16T04:17:20.459Z,93.10
2018-09-16T04:19:48.679Z,93.00
2018-09-16T04:22:16.996Z,93.20
2018-09-16T04:24:45.300Z,93.10
2018-09-16T04:27:13.558Z,93.20
2018-09-16T04:29:41.768Z,92.60
2018-09-16T04:32:10.056Z,93.00
2018-09-16T04:34:38.259Z,93.20
2018-09-16T04:37:06.575Z,93.50
2018-09-16T04:39:34.811Z,93.60
2018-09-16T04:42:03.067Z,93.70
2018-09-16T04:44:31.441Z,93.90
2018-09-16T04:46:59.684Z,93.60
2018-09-16T04:49:27.911Z,93.60
2018-09-16T04:51:56.173Z,93.70
2018-09-16T04:56:52.331Z,93.30
2018-09-16T05:01:48.595Z,93.40
2018-09-16T05:06:42.482Z,93.90
2018-09-16T05:09:11.559Z,94.50
2018-09-16T05:11:39.842Z,94.70
2018-09-16T05:14:08.259Z,94.00
2018-09-16T05:16:36.835Z,93.90
2018-09-16T05:19:05.124Z,93.50
2018-09-16T05:21:33.439Z,93.90
2018-09-16T05:24:01.717Z,93.70
2018-09-16T05:26:29.919Z,93.80
2018-09-16T05:28:58.170Z,94.00
2018-09-16T05:31:26.524Z,94.00
2018-09-16T05:33:54.873Z,94.00
2018-09-16T05:36:23.107Z,94.20
2018-09-16T05:38:51.371Z,93.90
2018-09-16T05:41:19.647Z,94.30
2018-09-16T05:43:47.995Z,94.10
2018-09-16T05:46:16.232Z,94.50
2018-09-16T05:48:44.497Z,94.50
2018-09-16T05:51:12.739Z,94.60
2018-09-16T05:53:40.963Z,94.50
2018-09-16T05:56:09.224Z,94.50
2018-09-16T05:58:37.486Z,94.50
2018-09-16T06:03:33.902Z,94.60
2018-09-16T06:06:02.226Z,95.10
2018-09-16T06:08:30.535Z,94.90
2018-09-16T06:10:58.909Z,94.90
2018-09-16T06:13:27.064Z,94.80
2018-09-16T06:15:55.396Z,94.70
2018-09-16T06:18:23.668Z,94.70
2018-09-16T06:20:51.948Z,94.60
2018-09-16T06:23:20.209Z,94.80
2018-09-16T06:25:48.403Z,94.50
2018-09-16T06:28:16.672Z,94.90
2018-09-16T06:30:44.899Z,94.60
2018-09-16T06:33:13.256Z,94.90
2018-09-16T06:35:41.636Z,95.00
2018-09-16T06:38:09.895Z,95.00
2018-09-16T06:40:38.104Z,94.50
2018-09-16T06:43:06.356Z,94.80
2018-09-16T06:45:35.512Z,94.00
2018-09-16T06:48:03.727Z,95.00
2018-09-16T06:50:32.080Z,94.00
2018-09-16T06:53:00.538Z,96.50
2018-09-16T06:55:29.203Z,94.00
2018-09-16T06:57:57.432Z,93.90
2018-09-16T07:02:53.716Z,93.90
2018-09-16T07:05:21.972Z,94.30
2018-09-16T07:07:50.180Z,94.30
2018-09-16T07:10:18.439Z,94.50
2018-09-16T07:12:46.675Z,94.50
2018-09-16T07:15:14.962Z,94.40
2018-09-16T07:17:43.221Z,94.40
2018-09-16T07:20:11.546Z,94.00
2018-09-16T07:23:42.645Z,94.00
2018-09-16T07:26:10.951Z,94.40
2018-09-16T07:28:39.244Z,94.10
2018-09-16T07:31:07.574Z,94.20
2018-09-16T07:33:35.843Z,94.10
2018-09-16T07:36:04.020Z,93.90
2018-09-16T07:38:32.214Z,94.10
2018-09-16T07:41:00.419Z,94.00
2018-09-16T07:43:28.665Z,94.10
2018-09-16T07:45:57.134Z,94.10
2018-09-16T07:48:25.445Z,93.80
2018-09-16T07:50:53.688Z,93.50
2018-09-16T07:53:21.978Z,93.50
2018-09-16T07:55:50.164Z,93.40
2018-09-16T07:58:18.421Z,93.30
2018-09-16T08:00:46.820Z,93.40
2018-09-16T08:03:15.140Z,93.40
2018-09-16T08:05:43.457Z,93.00
2018-09-16T08:08:11.536Z,93.20
2018-09-16T08:10:39.754Z,93.60
2018-09-16T08:13:08.063Z,93.60
2018-09-16T08:15:36.452Z,93.20
2018-09-16T08:18:04.776Z,93.00
2018-09-16T08:20:33.021Z,93.00
2018-09-16T08:23:01.306Z,93.30
2018-09-16T08:25:29.572Z,94.50
2018-09-16T08:27:57.863Z,93.30
2018-09-16T08:30:26.216Z,93.40
2018-09-16T08:32:54.506Z,93.00
2018-09-16T08:35:22.747Z,93.10
2018-09-16T08:37:51.100Z,92.90
2018-09-16T08:40:19.423Z,92.60
2018-09-16T08:42:47.621Z,92.40
2018-09-16T08:45:15.982Z,92.00
2018-09-16T08:47:44.227Z,92.30
2018-09-16T08:50:12.528Z,92.10
2018-09-16T08:52:40.803Z,92.00
2018-09-16T08:55:09.102Z,92.30
2018-09-16T08:57:37.399Z,92.20
2018-09-16T09:00:06.379Z,92.30
2018-09-16T09:02:34.602Z,92.10
2018-09-16T09:05:02.903Z,92.40
2018-09-16T09:07:31.176Z,92.00
2018-09-16T09:09:59.900Z,91.50
2018-09-16T09:12:28.361Z,91.10
2018-09-16T09:14:56.651Z,90.90
2018-09-16T09:17:24.870Z,94.60
2018-09-16T09:19:53.251Z,93.80
2018-09-16T09:22:21.487Z,90.50
2018-09-16T09:27:17.779Z,89.00
2018-09-16T09:29:46.275Z,89.70
2018-09-16T09:34:42.647Z,90.40
2018-09-16T09:37:10.891Z,89.00
2018-09-16T09:39:39.147Z,90.30
2018-09-16T09:42:07.359Z,89.50
2018-09-16T09:44:35.630Z,87.10
2018-09-16T09:47:03.925Z,86.30
2018-09-16T09:49:32.169Z,86.60
2018-09-16T09:52:00.512Z,88.10
2018-09-16T09:54:28.709Z,86.20
2018-09-16T09:56:56.996Z,82.80
2018-09-16T09:59:25.411Z,82.20
2018-09-16T10:01:53.547Z,81.30
2018-09-16T10:04:21.830Z,81.20
2018-09-16T10:06:50.143Z,81.70
2018-09-16T10:09:18.367Z,81.50
2018-09-16T10:11:46.741Z,79.60
2018-09-16T10:14:15.066Z,81.00
2018-09-16T10:16:43.404Z,77.70
2018-09-16T10:19:11.625Z,79.90
2018-09-16T10:21:39.844Z,76.70
2018-09-16T10:24:08.131Z,76.10
2018-09-16T10:26:36.270Z,77.10
2018-09-16T10:29:04.510Z,75.70
2018-09-16T10:31:32.792Z,81.20
2018-09-16T10:34:01.100Z,77.20
2018-09-16T10:36:29.401Z,79.30
2018-09-16T10:38:57.710Z,76.50
2018-09-16T10:41:25.915Z,76.90
2018-09-16T10:43:54.222Z,76.70
2018-09-16T10:46:22.452Z,75.90
2018-09-16T10:48:50.775Z,74.00
2018-09-16T10:51:19.071Z,74.10
2018-09-16T10:53:47.283Z,73.80
2018-09-16T10:56:15.525Z,73.00
2018-09-16T10:58:43.779Z,71.70
2018-09-16T11:01:12.081Z,72.00
2018-09-16T11:03:40.325Z,73.30
2018-09-16T11:06:08.625Z,73.30
2018-09-16T11:08:36.812Z,70.30
2018-09-16T11:11:05.210Z,73.00
2018-09-16T11:13:33.415Z,71.50
2018-09-16T11:16:01.644Z,71.60
2018-09-16T11:18:29.874Z,70.80
2018-09-16T11:20:58.186Z,70.30
2018-09-16T11:23:26.391Z,69.20
2018-09-16T11:25:54.603Z,69.40
2018-09-16T11:28:22.903Z,71.30
2018-09-16T11:30:51.452Z,71.80
2018-09-16T11:35:47.824Z,67.30
2018-09-16T11:38:16.096Z,68.20
2018-09-16T11:40:44.362Z,66.90
2018-09-16T11:43:12.684Z,66.50
2018-09-16T11:45:40.935Z,67.10
2018-09-16T11:48:09.195Z,67.30
2018-09-16T11:50:37.468Z,65.90
2018-09-16T11:53:06.264Z,65.90
2018-09-16T11:55:34.519Z,66.80
2018-09-16T11:58:02.916Z,67.00
2018-09-16T12:00:31.254Z,67.80
2018-09-16T12:02:59.531Z,66.90
2018-09-16T12:05:27.848Z,67.50
2018-09-16T12:07:56.072Z,66.70
2018-09-16T12:10:24.325Z,66.90
2018-09-16T12:12:52.563Z,66.10
2018-09-16T12:15:20.915Z,66.80
2018-09-16T12:17:49.117Z,65.70
2018-09-16T12:20:17.319Z,66.00
2018-09-16T12:22:45.512Z,65.40
2018-09-16T12:25:13.768Z,63.60
2018-09-16T12:27:42.108Z,63.30
2018-09-16T12:30:10.415Z,70.30
2018-09-16T12:32:38.692Z,63.60
2018-09-16T12:35:06.972Z,63.50
2018-09-16T12:37:35.152Z,65.90
2018-09-16T12:40:03.414Z,63.40
2018-09-16T12:42:31.675Z,61.90
2018-09-16T12:45:00.021Z,62.60
2018-09-16T12:47:28.366Z,64.70
2018-09-16T12:49:56.601Z,62.50
2018-09-16T12:52:24.810Z,64.00
2018-09-16T12:57:21.004Z,63.50
2018-09-16T12:59:49.477Z,60.90
2018-09-16T13:02:17.695Z,62.70
2018-09-16T13:04:45.948Z,63.60
2018-09-16T13:07:14.228Z,63.60
2018-09-16T13:09:42.426Z,65.10
2018-09-16T13:12:10.671Z,60.70
2018-09-16T13:14:39.100Z,59.50
2018-09-16T13:17:07.336Z,60.30
2018-09-16T13:19:35.626Z,61.10
2018-09-16T13:22:03.817Z,62.30
2018-09-16T13:24:32.010Z,62.70
2018-09-16T13:27:00.211Z,60.30
2018-09-16T13:31:56.444Z,59.10
2018-09-16T13:36:52.775Z,60.00
2018-09-16T13:39:21.059Z,61.30
2018-09-16T13:41:49.347Z,62.10
2018-09-16T13:44:17.547Z,60.60
2018-09-16T13:46:45.759Z,60.30
2018-09-16T13:49:13.970Z,61.40
2018-09-16T13:54:10.230Z,59.10
2018-09-16T13:56:38.508Z,61.00
2018-09-16T13:59:06.810Z,61.70
2018-09-16T14:01:35.155Z,62.10
2018-09-16T14:04:03.344Z,61.10
2018-09-16T14:08:59.583Z,60.90
2018-09-16T14:11:27.905Z,61.80
2018-09-16T14:13:56.142Z,60.30
2018-09-16T14:16:24.415Z,61.60
2018-09-16T14:18:52.704Z,61.50
2018-09-16T14:21:20.991Z,62.30
2018-09-16T14:23:49.182Z,62.70
2018-09-16T14:26:17.435Z,62.10
2018-09-16T14:28:45.686Z,63.10
2018-09-16T14:31:13.881Z,63.30
2018-09-16T14:33:42.116Z,63.00
2018-09-16T14:38:38.441Z,63.20
2018-09-16T14:41:06.920Z,63.60
2018-09-16T14:43:35.135Z,64.20
2018-09-16T14:46:03.447Z,63.40
2018-09-16T14:48:31.687Z,63.40
2018-09-16T14:50:59.964Z,64.80
2018-09-16T14:53:28.150Z,63.50
2018-09-16T14:55:56.479Z,63.40
2018-09-16T14:58:24.674Z,64.10
2018-09-16T15:00:52.956Z,63.70
2018-09-16T15:03:21.212Z,63.40
2018-09-16T15:05:49.548Z,63.20
2018-09-16T15:08:18.655Z,63.00
2018-09-16T15:10:47.880Z,63.20
2018-09-16T15:13:16.883Z,63.50
2018-09-16T15:15:45.248Z,64.00
2018-09-16T15:18:13.484Z,64.00
2018-09-16T15:20:41.702Z,65.10
2018-09-16T15:23:09.895Z,64.20
2018-09-16T15:25:38.066Z,64.40
2018-09-16T15:28:06.403Z,64.60
2018-09-16T15:30:34.628Z,66.40
2018-09-16T15:33:02.915Z,67.10
2018-09-16T15:35:31.178Z,65.40
2018-09-16T15:37:59.470Z,66.10
2018-09-16T15:40:27.727Z,64.80
2018-09-16T15:42:55.938Z,65.20
2018-09-16T15:45:24.195Z,65.80
2018-09-16T15:47:52.843Z,65.70
2018-09-16T15:50:21.036Z,66.80
2018-09-16T15:52:49.227Z,67.70
2018-09-16T15:55:17.578Z,66.30
2018-09-16T15:57:45.765Z,67.40
2018-09-16T16:00:13.996Z,67.90
2018-09-16T16:02:42.356Z,66.00
2018-09-16T16:05:10.544Z,65.90
2018-09-16T16:07:38.767Z,66.90
2018-09-16T16:10:06.973Z,67.10
2018-09-16T16:12:35.196Z,67.90
2018-09-16T16:15:03.394Z,68.80
2018-09-16T16:19:59.663Z,67.70
2018-09-16T16:22:27.927Z,67.90
2018-09-16T16:24:56.056Z,67.80
2018-09-16T16:27:24.271Z,69.10
2018-09-16T16:29:59.074Z,68.10
2018-09-16T16:32:27.359Z,68.50
2018-09-16T16:37:23.648Z,67.30
2018-09-16T16:39:52.015Z,68.00
2018-09-16T16:42:20.279Z,68.80
2018-09-16T16:44:48.511Z,69.20
2018-09-16T16:47:16.701Z,69.70
2018-09-16T16:52:13.026Z,69.90
2018-09-16T16:54:41.318Z,71.00
2018-09-16T16:57:09.626Z,71.40
2018-09-16T16:59:37.968Z,71.80
2018-09-16T17:02:06.120Z,72.40
2018-09-16T17:04:34.335Z,73.10
2018-09-16T17:07:03.283Z,73.60
2018-09-16T17:09:31.569Z,72.80
2018-09-16T17:11:59.748Z,73.60
2018-09-16T17:14:27.975Z,73.50
2018-09-16T17:16:56.230Z,74.00
2018-09-16T17:19:24.496Z,74.90
2018-09-16T17:21:52.783Z,75.30
2018-09-16T17:24:21.052Z,76.00
2018-09-16T17:26:49.335Z,76.10
2018-09-16T17:29:17.577Z,76.80
2018-09-16T17:31:45.892Z,77.00
2018-09-16T17:34:14.159Z,77.80
2018-09-16T17:36:42.459Z,78.10
2018-09-16T17:39:11.894Z,78.10
2018-09-16T17:41:40.282Z,78.10
2018-09-16T17:44:08.961Z,78.70
2018-09-16T17:46:37.534Z,78.80
2018-09-16T17:49:05.788Z,79.60
2018-09-16T17:51:34.438Z,79.90
2018-09-16T17:54:02.737Z,79.40
2018-09-16T17:56:31.029Z,80.10
2018-09-16T17:58:59.235Z,80.50
2018-09-16T18:01:27.434Z,80.80
2018-09-16T18:03:55.716Z,81.00
2018-09-16T18:06:23.903Z,81.60
2018-09-16T18:08:52.116Z,81.70
2018-09-16T18:11:20.353Z,81.60
2018-09-16T18:13:48.622Z,81.70
2018-09-16T18:16:16.901Z,81.90
2018-09-16T18:18:45.180Z,82.20
2018-09-16T18:21:13.418Z,82.60
2018-09-16T18:23:41.651Z,83.10
2018-09-16T18:26:09.839Z,83.30
2018-09-16T18:28:38.058Z,83.60
2018-09-16T18:33:46.949Z,82.90
2018-09-16T18:36:15.270Z,83.80
2018-09-16T18:38:43.502Z,84.30
2018-09-16T18:41:11.790Z,84.70
2018-09-16T18:43:40.074Z,85.50
2018-09-16T18:46:08.285Z,86.30
2018-09-16T18:48:36.597Z,88.30
2018-09-16T18:51:04.849Z,88.80
2018-09-16T18:53:33.171Z,87.50
2018-09-16T18:56:01.388Z,87.60
2018-09-16T18:58:29.676Z,87.90
2018-09-16T19:00:57.952Z,87.90
2018-09-16T19:03:26.278Z,88.10
2018-09-16T19:05:54.626Z,88.20
2018-09-16T19:08:22.936Z,87.80
2018-09-16T19:10:51.131Z,88.00
2018-09-16T19:13:19.364Z,87.80
2018-09-16T19:15:47.563Z,88.40
2018-09-16T19:18:15.777Z,88.80
2018-09-16T19:20:44.140Z,88.80
2018-09-16T19:23:12.543Z,88.80
2018-09-16T19:25:40.851Z,88.40
2018-09-16T19:28:09.028Z,88.10
2018-09-16T19:30:37.250Z,88.70
2018-09-16T19:33:05.546Z,89.10
2018-09-16T19:35:33.825Z,89.70
2018-09-16T19:38:03.059Z,90.00
2018-09-16T19:40:31.274Z,90.10
2018-09-16T19:42:59.511Z,89.90
2018-09-16T19:45:27.743Z,89.30
2018-09-16T19:47:55.962Z,89.00
2018-09-16T19:57:48.251Z,88.80
2018-09-16T20:00:16.474Z,89.80
2018-09-16T20:02:44.755Z,90.00
2018-09-16T20:05:13.111Z,90.30
2018-09-16T20:07:41.407Z,90.30
2018-09-16T20:10:09.682Z,90.20
2018-09-16T20:12:37.986Z,90.30
2018-09-16T20:15:07.071Z,90.80
2018-09-16T20:17:35.488Z,91.00
2018-09-16T20:20:05.707Z,90.90
2018-09-16T20:22:33.939Z,90.80
2018-09-16T20:25:02.200Z,90.70
2018-09-16T20:27:30.467Z,90.60
2018-09-16T20:29:58.712Z,90.60
2018-09-16T20:32:27.040Z,90.50
2018-09-16T20:34:55.272Z,90.30
2018-09-16T20:37:23.596Z,90.20
2018-09-16T20:39:51.847Z,90.20
2018-09-16T20:42:20.176Z,90.30
2018-09-16T20:44:48.504Z,90.50
2018-09-16T20:47:16.780Z,90.00
2018-09-16T20:49:45.079Z,90.00
2018-09-16T20:52:13.270Z,91.40
2018-09-16T20:54:41.505Z,90.30
2018-09-16T20:57:09.871Z,90.70
2018-09-16T20:59:38.159Z,90.90
2018-09-16T21:02:06.398Z,91.20
2018-09-16T21:04:34.600Z,91.40
2018-09-16T21:07:02.918Z,91.20
2018-09-16T21:09:31.243Z,91.40
2018-09-16T21:12:00.677Z,91.70
2018-09-16T21:14:30.548Z,91.80
2018-09-16T21:16:59.388Z,91.50
2018-09-16T21:19:30.367Z,91.90
2018-09-16T21:21:59.944Z,91.90
2018-09-16T21:24:29.680Z,91.30
2018-09-16T21:26:59.214Z,91.70
2018-09-16T21:29:28.012Z,92.10
2018-09-16T21:31:58.514Z,92.20
2018-09-16T21:34:27.326Z,92.50
2018-09-16T21:36:56.252Z,92.50
2018-09-16T21:39:26.578Z,92.20
2018-09-16T21:41:56.029Z,91.90
2018-09-16T21:44:24.742Z,91.90
2018-09-16T21:46:53.349Z,92.20
2018-09-16T21:49:22.126Z,92.70
2018-09-16T21:51:50.676Z,92.90
2018-09-16T21:54:19.330Z,92.90
2018-09-16T21:56:49.547Z,92.70
2018-09-16T21:59:18.253Z,92.40
2018-09-16T22:01:48.488Z,92.40
2018-09-16T22:04:19.145Z,92.10
2018-09-16T22:06:50.640Z,91.80
2018-09-16T22:09:21.318Z,91.60
2018-09-16T22:11:52.681Z,91.60
2018-09-16T22:14:23.093Z,91.60
2018-09-16T22:16:53.282Z,91.80
2018-09-16T22:19:22.810Z,91.80
2018-09-16T22:21:53.280Z,92.10
2018-09-16T22:24:23.882Z,92.30
2018-09-16T22:26:53.539Z,92.80
2018-09-16T22:29:22.256Z,92.70
2018-09-16T22:31:50.729Z,92.00
2018-09-16T22:34:20.899Z,92.30
2018-09-16T22:36:51.586Z,92.80
2018-09-16T22:40:23.548Z,92.90
2018-09-16T22:45:20.903Z,93.10
2018-09-16T22:47:51.588Z,93.50
2018-09-16T22:50:20.220Z,93.10
2018-09-16T22:52:48.714Z,93.40
2018-09-16T22:55:20.476Z,93.20
2018-09-16T22:57:49.331Z,93.60
2018-09-16T23:00:18.744Z,94.10
2018-09-16T23:02:48.587Z,94.60
2018-09-16T23:05:17.834Z,94.60
2018-09-16T23:07:47.460Z,95.00
2018-09-16T23:10:16.243Z,95.30
2018-09-16T23:12:44.925Z,95.20
2018-09-16T23:15:14.339Z,94.20
2018-09-16T23:17:42.959Z,94.60
2018-09-16T23:20:11.697Z,94.30
2018-09-16T23:22:40.420Z,94.20
2018-09-16T23:25:09.802Z,94.50
2018-09-16T23:27:39.230Z,94.10
2018-09-16T23:30:07.764Z,94.00
2018-09-16T23:32:38.268Z,94.00
2018-09-16T23:35:06.842Z,94.00
2018-09-16T23:37:35.630Z,93.10
2018-09-16T23:40:05.259Z,93.10
2018-09-16T23:42:34.843Z,94.80
2018-09-16T23:45:03.232Z,92.70
2018-09-16T23:47:31.857Z,92.60
2018-09-16T23:54:57.015Z,92.60
2018-09-16T23:57:25.640Z,92.80
2018-09-16T23:59:54.151Z,92.40
